Metairie, Louisiana
Current Conditions -  °F | °C
As of 2:35 AM on Friday 28 Nov 2014 (Local Time) from KVSH Reporting Station
Clear Clear  
Wind Chill: 44°   Ceiling: Unl
Heat Index: 46°   Visibility: 10mi
Dew Point: 30°   Wind: 5mph
Humidity: 53%   Direction: 40°NE
Pressure: 30.42"   Gusts: NA
Location:  29.99°N, 90.13°W
Report Text: KVSH 280835Z AUTO 04004KT 10SM CLR 08/M01 A3042 RMK AO1
Loading
Personal Weather Stations






























Interactive Weather Map New forecast layout! Learn more

10-Day Weather Forecast

Advertisements
Track Severe Weather on mobile